Time;durP1;ratioP1;P1;durP2;ratioP2;P2;SDS_P1;SDS_P2;PMS_P1;PMS_P2;Temp;Humidity;BMP_temperature;BMP_pressure;BME280_temperature;BME280_humidity;BME280_pressure;Samples;Min_cycle;Max_cycle;Signal;HPM_P1;HPM_P2
2023/10/09 00:00:50;;;;;;;13.10;5.88;;;18.50;92.10;;;;;;5069291;28;20111;-53
2023/10/09 00:03:22;;;;;;;13.93;5.65;;;18.50;92.10;;;;;;5068861;28;20029;-53
2023/10/09 00:05:49;;;;;;;14.73;6.47;;;18.50;92.10;;;;;;5068875;28;20096;-53
2023/10/09 00:08:21;;;;;;;14.70;6.13;;;18.50;92.20;;;;;;5086690;28;20077;-53
2023/10/09 00:10:57;;;;;;;14.15;5.78;;;18.40;92.20;;;;;;5054065;28;20032;-53
2023/10/09 00:13:32;;;;;;;12.80;5.28;;;18.40;92.20;;;;;;5086736;28;20059;-53
2023/10/09 00:16:08;;;;;;;12.70;6.07;;;18.40;92.30;;;;;;5069858;28;20044;-53
2023/10/09 00:18:34;;;;;;;14.23;6.03;;;18.40;92.20;;;;;;5086868;28;20055;-53
2023/10/09 00:21:12;;;;;;;13.82;5.53;;;18.40;92.30;;;;;;5068644;28;20058;-52
2023/10/09 00:23:41;;;;;;;13.00;5.30;;;18.40;92.30;;;;;;5086515;28;20032;-53
2023/10/09 00:26:12;;;;;;;12.93;6.00;;;18.40;92.30;;;;;;5068548;28;20028;-53
2023/10/09 00:28:43;;;;;;;13.40;5.45;;;18.30;92.20;;;;;;5086485;28;20449;-53
2023/10/09 00:31:14;;;;;;;12.00;5.22;;;18.30;92.30;;;;;;5068491;28;20036;-53
2023/10/09 00:33:43;;;;;;;10.35;5.30;;;18.30;92.30;;;;;;5069328;28;20154;-53
2023/10/09 00:36:09;;;;;;;12.60;5.63;;;18.30;92.30;;;;;;5068520;28;20106;-53
2023/10/09 00:38:36;;;;;;;13.20;5.43;;;18.30;92.60;;;;;;5051987;28;20070;-53
2023/10/09 00:43:35;;;;;;;10.60;5.13;;;18.20;92.30;;;;;;5085956;28;20028;-53
2023/10/09 00:46:08;;;;;;;9.73;4.78;;;18.20;92.40;;;;;;5068971;28;20025;-53
2023/10/09 00:48:37;;;;;;;13.40;5.97;;;18.20;92.40;;;;;;5053481;28;20111;-53
2023/10/09 00:51:16;;;;;;;10.20;5.03;;;18.10;92.40;;;;;;5051952;28;20035;-53
2023/10/09 00:53:51;;;;;;;10.02;5.18;;;18.10;92.40;;;;;;5069962;28;20035;-53
2023/10/09 01:01:56;;;;;;;12.50;5.30;;;18.10;92.40;;;;;;5054530;28;20029;-53
2023/10/09 01:04:25;;;;;;;16.05;5.32;;;18.10;92.40;;;;;;5055796;28;20033;-53
2023/10/09 01:07:08;;;;;;;10.65;5.20;;;18.10;92.50;;;;;;5068227;28;20032;-53
2023/10/09 01:09:43;;;;;;;11.98;5.38;;;18.00;92.50;;;;;;5052987;28;20041;-53
2023/10/09 01:12:16;;;;;;;14.95;5.57;;;18.00;92.60;;;;;;5086208;28;20032;-53
2023/10/09 01:14:42;;;;;;;11.90;4.95;;;18.00;92.60;;;;;;5069429;28;20222;-52
2023/10/09 01:17:09;;;;;;;13.52;5.15;;;18.00;92.60;;;;;;5068341;28;20087;-52
2023/10/09 01:19:35;;;;;;;12.27;5.22;;;18.00;92.60;;;;;;5051918;28;20036;-53
2023/10/09 01:22:04;;;;;;;16.25;5.15;;;17.90;92.60;;;;;;5051576;28;20029;-53
2023/10/09 01:24:34;;;;;;;10.40;5.55;;;17.90;92.60;;;;;;5085912;28;20021;-52
2023/10/09 01:26:59;;;;;;;12.52;5.38;;;17.90;92.60;;;;;;5068397;28;20039;-52
2023/10/09 01:29:27;;;;;;;11.40;5.25;;;17.90;92.60;;;;;;5067827;28;20123;-53
2023/10/09 01:31:56;;;;;;;12.18;5.68;;;17.90;92.60;;;;;;5085736;28;20029;-52
2023/10/09 01:34:24;;;;;;;10.10;5.18;;;17.90;92.60;;;;;;5067852;28;20044;-53
2023/10/09 01:36:53;;;;;;;12.77;4.95;;;17.80;92.60;;;;;;5068099;28;20020;-53
2023/10/09 01:39:23;;;;;;;14.45;5.15;;;17.80;92.60;;;;;;5085610;28;20414;-53
2023/10/09 01:41:52;;;;;;;10.35;4.85;;;17.80;92.70;;;;;;5068480;28;20020;-52
2023/10/09 01:44:18;;;;;;;12.52;5.32;;;17.70;92.90;;;;;;5067488;28;20032;-53
2023/10/09 01:46:47;;;;;;;10.77;5.00;;;17.70;92.70;;;;;;5051292;28;20028;-52
2023/10/09 01:49:21;;;;;;;12.73;4.82;;;17.70;92.70;;;;;;5051248;28;20040;-53
2023/10/09 01:51:48;;;;;;;11.65;4.65;;;17.70;92.70;;;;;;5068565;28;20028;-52
2023/10/09 01:54:33;;;;;;;9.80;4.97;;;17.70;92.80;;;;;;5067731;28;20028;-53
2023/10/09 01:57:05;;;;;;;11.95;4.97;;;17.60;92.70;;;;;;5085599;28;20032;-52
2023/10/09 01:59:31;;;;;;;11.80;5.10;;;17.60;92.70;;;;;;5085626;28;20039;-53
2023/10/09 02:01:58;;;;;;;10.65;5.00;;;17.60;92.70;;;;;;5085688;28;20021;-52
2023/10/09 02:04:24;;;;;;;14.70;5.13;;;17.60;92.80;;;;;;5088313;28;20029;-53
2023/10/09 02:06:52;;;;;;;9.50;4.97;;;17.60;92.80;;;;;;5071281;28;20031;-53
2023/10/09 02:09:22;;;;;;;10.80;4.57;;;17.60;92.80;;;;;;5071640;28;20522;-52
2023/10/09 02:11:48;;;;;;;11.90;5.53;;;17.60;92.80;;;;;;5071908;28;20035;-53
2023/10/09 02:14:19;;;;;;;12.82;4.45;;;17.50;92.80;;;;;;5054563;28;20041;-53
2023/10/09 02:17:09;;;;;;;12.27;5.13;;;17.50;92.80;;;;;;5072137;28;20076;-52
2023/10/09 02:19:35;;;;;;;12.90;4.80;;;17.50;92.80;;;;;;5073991;28;20066;-53
2023/10/09 02:22:11;;;;;;;13.60;4.90;;;17.50;92.90;;;;;;5070953;28;20042;-53
2023/10/09 02:24:49;;;;;;;9.82;4.78;;;17.50;92.90;;;;;;5088921;28;20059;-52
2023/10/09 02:30:08;;;;;;;11.73;5.10;;;17.50;92.90;;;;;;5088634;28;20392;-52
2023/10/09 02:32:33;;;;;;;10.48;4.70;;;17.50;92.90;;;;;;5088654;28;20028;-53
2023/10/09 02:35:08;;;;;;;13.95;5.18;;;17.40;92.90;;;;;;5070850;28;20033;-52
2023/10/09 02:37:37;;;;;;;14.55;5.60;;;17.40;92.90;;;;;;5088478;28;20052;-53
2023/10/09 02:40:08;;;;;;;11.98;4.82;;;17.40;92.90;;;;;;5070991;28;20032;-53
2023/10/09 02:42:34;;;;;;;12.07;4.97;;;17.30;93.00;;;;;;5071454;28;20044;-53
2023/10/09 02:45:00;;;;;;;10.98;4.82;;;17.30;93.00;;;;;;5053745;28;20033;-53
2023/10/09 02:47:38;;;;;;;10.65;4.88;;;17.30;93.00;;;;;;5037365;28;20028;-52
2023/10/09 02:50:21;;;;;;;11.02;4.70;;;17.30;93.10;;;;;;5072000;28;20045;-52
2023/10/09 02:52:52;;;;;;;14.13;4.70;;;17.30;93.00;;;;;;5055773;28;20025;-50
2023/10/09 02:55:25;;;;;;;10.57;5.13;;;17.20;93.00;;;;;;5070857;28;20047;-50
2023/10/09 02:57:57;;;;;;;14.50;5.00;;;17.30;93.10;;;;;;5071240;28;20029;-50
2023/10/09 03:00:29;;;;;;;10.52;4.88;;;17.20;93.10;;;;;;5054282;28;20056;-50
2023/10/09 03:02:58;;;;;;;11.40;4.90;;;17.20;93.10;;;;;;5087882;28;20047;-52
2023/10/09 03:05:23;;;;;;;7.38;4.18;;;17.20;93.20;;;;;;5070585;28;20081;-53
2023/10/09 03:07:51;;;;;;;13.32;4.95;;;17.20;93.20;;;;;;5070255;28;20029;-52
2023/10/09 03:10:17;;;;;;;11.38;4.47;;;17.20;93.20;;;;;;5087933;28;20054;-53
2023/10/09 03:12:43;;;;;;;8.32;4.40;;;17.20;93.20;;;;;;5069951;28;20025;-52
2023/10/09 03:15:09;;;;;;;11.95;4.97;;;17.10;93.20;;;;;;5052430;28;20090;-53
2023/10/09 03:17:34;;;;;;;12.45;4.32;;;17.20;93.20;;;;;;5069912;28;20054;-52
2023/10/09 03:20:12;;;;;;;12.90;4.35;;;17.10;93.20;;;;;;5053253;28;20028;-52
2023/10/09 03:22:38;;;;;;;8.68;4.50;;;17.10;93.20;;;;;;5038727;28;20025;-53
2023/10/09 03:25:11;;;;;;;14.00;4.75;;;17.10;93.20;;;;;;5087745;28;20079;-52
2023/10/09 03:27:44;;;;;;;10.18;4.30;;;17.10;93.30;;;;;;5070706;28;20437;-53
2023/10/09 03:30:16;;;;;;;13.90;5.18;;;17.10;93.20;;;;;;5070367;28;20048;-52
2023/10/09 03:32:43;;;;;;;11.32;4.90;;;17.00;93.20;;;;;;5070320;28;20020;-53
2023/10/09 03:35:13;;;;;;;9.38;4.20;;;17.00;93.20;;;;;;5069463;28;20029;-53
2023/10/09 03:37:39;;;;;;;10.45;5.07;;;17.00;93.30;;;;;;5087202;28;20477;-52
2023/10/09 03:40:07;;;;;;;9.27;4.75;;;17.00;93.30;;;;;;5069378;28;20065;-52
2023/10/09 03:42:36;;;;;;;12.25;4.75;;;17.00;93.30;;;;;;5069631;28;20444;-52
2023/10/09 03:45:05;;;;;;;10.23;4.32;;;17.00;93.30;;;;;;5069839;28;20036;-52
2023/10/09 03:47:31;;;;;;;11.07;4.50;;;17.00;93.40;;;;;;5087263;28;20063;-53
2023/10/09 03:49:57;;;;;;;12.55;4.45;;;17.00;93.40;;;;;;5069241;28;20029;-53
2023/10/09 03:52:25;;;;;;;11.80;4.15;;;16.90;93.30;;;;;;5069436;28;20108;-53
2023/10/09 03:54:51;;;;;;;12.38;4.30;;;17.00;93.40;;;;;;5069481;28;20042;-53
2023/10/09 03:57:19;;;;;;;9.73;4.30;;;16.90;93.40;;;;;;5069147;28;20099;-52
2023/10/09 03:59:48;;;;;;;9.32;4.38;;;16.90;93.40;;;;;;5069690;28;20035;-53
2023/10/09 04:02:16;;;;;;;9.73;4.53;;;16.90;93.40;;;;;;5087080;28;20025;-53
2023/10/09 04:04:46;;;;;;;7.65;3.92;;;16.90;93.40;;;;;;5068903;28;20032;-52
2023/10/09 04:07:13;;;;;;;11.05;4.60;;;16.90;93.40;;;;;;5086934;28;20024;-53
2023/10/09 04:09:44;;;;;;;10.10;4.68;;;16.90;93.40;;;;;;5086712;28;20094;-53
2023/10/09 04:14:57;;;;;;;8.77;4.32;;;16.80;93.40;;;;;;5086738;28;20056;-53
2023/10/09 04:19:59;;;;;;;9.98;4.60;;;16.80;93.50;;;;;;5068717;28;20040;-52
2023/10/09 04:22:31;;;;;;;10.68;4.45;;;16.80;93.50;;;;;;5086543;28;20016;-52
2023/10/09 04:24:57;;;;;;;10.05;4.25;;;16.80;93.50;;;;;;5069638;28;20033;-53
2023/10/09 04:27:26;;;;;;;7.25;3.80;;;16.80;93.50;;;;;;5086127;28;20033;-52
2023/10/09 04:29:54;;;;;;;15.30;4.80;;;16.70;93.50;;;;;;5086060;28;20387;-53
2023/10/09 04:32:19;;;;;;;11.07;4.28;;;16.70;93.50;;;;;;5086500;28;20044;-52
2023/10/09 04:35:19;;;;;;;14.23;4.30;;;16.70;93.50;;;;;;5051804;28;20036;-53
2023/10/09 04:37:44;;;;;;;10.77;4.50;;;16.70;93.60;;;;;;5072850;28;20092;-52
2023/10/09 04:40:14;;;;;;;8.63;4.28;;;16.70;93.60;;;;;;5068764;28;20025;-52
2023/10/09 04:42:57;;;;;;;13.23;4.53;;;16.60;93.60;;;;;;5053221;28;20043;-53
2023/10/09 04:46:06;;;;;;;11.25;4.75;;;16.70;93.70;;;;;;5086423;28;20025;-52
2023/10/09 04:48:09;;;;;;;9.07;4.35;;;16.60;93.60;;;;;;5071252;28;20195;-52
2023/10/09 04:53:22;;;;;;;10.98;4.13;;;16.60;93.60;;;;;;5086373;28;20074;-52
2023/10/09 04:55:57;;;;;;;10.10;4.47;;;16.60;93.70;;;;;;5057111;28;20039;-52
2023/10/09 04:58:25;;;;;;;13.05;4.95;;;16.60;93.70;;;;;;5086072;28;20104;-52
2023/10/09 05:03:29;;;;;;;10.15;4.18;;;16.60;93.70;;;;;;5068411;28;20021;-50
2023/10/09 05:05:58;;;;;;;9.75;4.25;;;16.60;93.70;;;;;;5068033;28;20040;-52
2023/10/09 05:16:18;;;;;;;10.70;4.25;;;16.50;93.70;;;;;;5066027;28;20115;-52
2023/10/09 05:18:45;;;;;;;11.05;4.45;;;16.50;93.70;;;;;;5080271;28;20017;-53
2023/10/09 05:32:05;;;;;;;8.35;4.07;;;16.40;93.70;;;;;;5065628;28;20104;-50
2023/10/09 05:34:34;;;;;;;11.35;4.25;;;16.40;93.70;;;;;;5065624;28;20033;-52
2023/10/09 05:40:53;;;;;;;10.65;4.03;;;16.40;93.70;;;;;;5081970;28;20079;-52
2023/10/09 05:42:44;;;;;;;12.02;4.75;;;16.40;93.80;;;;;;5067997;28;20033;-52
2023/10/09 05:48:33;;;;;;;13.30;3.92;;;16.40;93.70;;;;;;5084692;28;20040;-52
2023/10/09 05:54:23;;;;;;;9.80;4.15;;;16.40;93.80;;;;;;5069377;28;20110;-53
2023/10/09 06:04:17;;;;;;;11.35;4.28;;;16.30;94.00;;;;;;5082394;28;20035;-52
2023/10/09 06:06:44;;;;;;;15.02;4.13;;;16.30;94.00;;;;;;5069163;28;20043;-52
2023/10/09 06:14:12;;;;;;;12.80;4.38;;;16.20;94.40;;;;;;5084413;28;20041;-52
2023/10/09 06:19:31;;;;;;;11.82;4.10;;;16.20;94.20;;;;;;5081689;28;20136;-52
2023/10/09 06:24:42;;;;;;;15.90;4.90;;;16.20;94.30;;;;;;5081771;28;20048;-52
2023/10/09 06:27:24;;;;;;;12.25;4.28;;;16.20;94.40;;;;;;5068396;28;20040;-52
2023/10/09 06:34:51;;;;;;;25.65;5.38;;;16.10;94.40;;;;;;5083543;28;20055;-52
2023/10/09 06:45:18;;;;;;;14.93;5.05;;;16.20;94.50;;;;;;5068556;28;20083;-52
2023/10/09 06:48:07;;;;;;;17.00;5.55;;;16.10;94.50;;;;;;5082455;28;20029;-52
2023/10/09 06:53:25;;;;;;;24.83;5.50;;;16.20;94.60;;;;;;5057981;28;20106;-52
2023/10/09 06:56:04;;;;;;;19.23;5.18;;;16.20;94.50;;;;;;5102650;28;20086;-52
2023/10/09 06:58:41;;;;;;;25.92;5.70;;;16.20;94.50;;;;;;5088965;28;20033;-52
2023/10/09 07:03:59;;;;;;;27.15;6.18;;;16.20;94.60;;;;;;5066757;28;20027;-52
2023/10/09 07:06:47;;;;;;;14.07;6.13;;;16.20;94.70;;;;;;5075081;28;20082;-52
2023/10/09 07:14:07;;;;;;;15.75;5.45;;;16.30;94.80;;;;;;5086386;28;20032;-52
2023/10/09 07:16:38;;;;;;;21.42;6.05;;;16.30;94.80;;;;;;5103212;28;20111;-52
2023/10/09 07:19:26;;;;;;;21.23;5.82;;;16.30;94.80;;;;;;5087659;28;20030;-52
2023/10/09 07:21:54;;;;;;;29.17;6.18;;;16.30;94.90;;;;;;5086489;28;20024;-52
2023/10/09 07:24:34;;;;;;;26.88;5.65;;;16.30;95.00;;;;;;5102543;28;20043;-52
2023/10/09 07:27:09;;;;;;;16.20;5.55;;;16.30;95.10;;;;;;5087241;28;20500;-52
2023/10/09 07:29:47;;;;;;;19.73;5.78;;;16.30;95.10;;;;;;5102360;28;20033;-52
2023/10/09 07:32:19;;;;;;;27.90;6.70;;;16.30;95.20;;;;;;5087442;28;20017;-52
2023/10/09 07:34:54;;;;;;;29.45;5.88;;;16.30;95.20;;;;;;5087407;28;20029;-52
2023/10/09 07:37:22;;;;;;;35.20;6.82;;;16.30;95.30;;;;;;5069023;28;20039;-52
2023/10/09 07:39:56;;;;;;;26.20;6.65;;;16.40;95.30;;;;;;5102530;28;20060;-52
2023/10/09 07:46:29;;;;;;;25.45;6.75;;;16.40;95.40;;;;;;5086012;28;20078;-52
2023/10/09 07:48:05;;;;;;;34.38;7.25;;;16.40;95.40;;;;;;5096155;28;20044;-52
2023/10/09 07:50:49;;;;;;;25.95;7.72;;;16.40;95.40;;;;;;5064978;28;20033;-52
2023/10/09 07:53:18;;;;;;;39.35;8.52;;;16.40;95.40;;;;;;5075757;28;20025;-52
2023/10/09 07:55:55;;;;;;;43.00;7.95;;;16.40;95.50;;;;;;5064636;28;20041;-52
2023/10/09 07:58:25;;;;;;;60.88;10.45;;;16.50;95.60;;;;;;5064950;28;20025;-52
2023/10/09 08:01:07;;;;;;;31.38;7.78;;;16.50;95.60;;;;;;5060571;28;20025;-55
2023/10/09 08:03:35;;;;;;;56.30;9.68;;;16.50;95.60;;;;;;5052389;28;20077;-55
2023/10/09 08:06:37;;;;;;;44.75;9.50;;;16.50;95.60;;;;;;5037895;28;20083;-55
2023/10/09 08:16:51;;;;;;;33.55;7.88;;;16.60;95.80;;;;;;5072349;28;20029;-55
2023/10/09 08:19:32;;;;;;;43.20;8.70;;;16.60;95.80;;;;;;5048459;28;20037;-55
2023/10/09 08:22:52;;;;;;;58.05;9.45;;;16.60;95.90;;;;;;5061139;28;20036;-55
2023/10/09 08:24:55;;;;;;;53.72;9.75;;;16.60;96.10;;;;;;5047137;28;20179;-55
2023/10/09 08:33:03;;;;;;;45.20;9.60;;;16.70;96.40;;;;;;5059058;28;20025;-55
2023/10/09 08:35:29;;;;;;;43.97;10.05;;;16.70;96.40;;;;;;5055094;28;20044;-56
2023/10/09 08:38:10;;;;;;;55.35;11.27;;;16.80;96.50;;;;;;5062091;28;20085;-56
2023/10/09 08:40:38;;;;;;;62.17;10.88;;;16.80;96.40;;;;;;5040704;28;20086;-56
2023/10/09 08:43:09;;;;;;;57.50;10.27;;;16.80;96.30;;;;;;5047321;28;20044;-55
2023/10/09 08:45:39;;;;;;;66.38;12.43;;;16.80;96.40;;;;;;5057003;28;20040;-55
2023/10/09 08:48:06;;;;;;;73.90;12.57;;;16.90;96.40;;;;;;5044842;28;20052;-55
2023/10/09 08:50:34;;;;;;;85.65;13.38;;;16.90;96.60;;;;;;5045073;28;20032;-56
2023/10/09 08:53:00;;;;;;;74.63;12.98;;;16.90;96.60;;;;;;5062985;28;20033;-55
2023/10/09 08:55:26;;;;;;;78.22;13.63;;;16.90;96.60;;;;;;5043891;28;20119;-55
2023/10/09 08:57:52;;;;;;;71.63;12.65;;;17.00;96.60;;;;;;5064034;28;20097;-55
2023/10/09 09:00:23;;;;;;;64.65;12.20;;;17.00;96.50;;;;;;5062624;28;20021;-55
2023/10/09 09:02:53;;;;;;;63.13;11.65;;;17.00;96.50;;;;;;5064534;28;20421;-55
2023/10/09 09:05:20;;;;;;;88.45;14.48;;;17.10;96.60;;;;;;5075526;28;20094;-55
2023/10/09 09:07:46;;;;;;;53.03;11.05;;;17.10;96.60;;;;;;5060386;28;20029;-55
2023/10/09 09:10:21;;;;;;;55.20;11.63;;;17.10;96.70;;;;;;5061981;28;20067;-55
2023/10/09 09:13:03;;;;;;;78.43;12.63;;;17.10;96.60;;;;;;5062324;28;20094;-55
2023/10/09 09:15:29;;;;;;;73.57;13.90;;;17.20;96.60;;;;;;5065848;28;20127;-55
2023/10/09 09:18:10;;;;;;;62.05;11.80;;;17.20;96.70;;;;;;5066451;28;20488;-55
2023/10/09 09:20:45;;;;;;;69.50;12.25;;;17.20;96.80;;;;;;5069922;28;20033;-55
2023/10/09 09:23:12;;;;;;;56.67;11.90;;;17.20;96.80;;;;;;5050572;28;20052;-55
2023/10/09 09:25:45;;;;;;;53.05;12.38;;;17.30;96.70;;;;;;5079429;28;20155;-56
2023/10/09 09:28:19;;;;;;;76.40;11.80;;;17.30;96.60;;;;;;5066583;28;20059;-55
2023/10/09 09:30:50;;;;;;;81.47;14.57;;;17.30;96.70;;;;;;5065235;28;20040;-55
2023/10/09 09:33:39;;;;;;;66.05;12.13;;;17.40;96.70;;;;;;5077932;28;20048;-55
2023/10/09 09:36:06;;;;;;;74.45;14.05;;;17.50;96.50;;;;;;5068833;28;20040;-55
2023/10/09 09:38:47;;;;;;;104.72;15.88;;;17.50;96.50;;;;;;5067871;28;20520;-55
2023/10/09 09:41:24;;;;;;;160.90;21.92;;;17.60;96.30;;;;;;5063222;28;20029;-56
2023/10/09 09:43:59;;;;;;;120.93;18.00;;;17.70;96.10;;;;;;5064518;28;20025;-55
2023/10/09 09:46:33;;;;;;;130.20;19.42;;;17.80;95.90;;;;;;5054544;28;20055;-55
2023/10/09 09:49:05;;;;;;;124.15;17.73;;;17.90;95.70;;;;;;5064676;28;20063;-55
2023/10/09 09:51:31;;;;;;;155.50;19.55;;;17.90;95.50;;;;;;5082539;28;20025;-55
2023/10/09 09:53:57;;;;;;;155.60;20.45;;;18.00;95.40;;;;;;5083025;28;20051;-55
2023/10/09 09:56:26;;;;;;;179.27;24.08;;;18.00;95.40;;;;;;5058169;28;20044;-55
2023/10/09 09:58:56;;;;;;;166.98;23.40;;;18.10;95.30;;;;;;5062769;28;20264;-55
2023/10/09 10:01:26;;;;;;;147.73;21.02;;;18.10;95.20;;;;;;5078843;28;20029;-55
2023/10/09 10:03:58;;;;;;;120.63;18.25;;;18.20;95.10;;;;;;5049588;28;20021;-55
2023/10/09 10:06:26;;;;;;;121.88;17.90;;;18.20;95.20;;;;;;5081551;28;20075;-55
2023/10/09 10:08:52;;;;;;;123.07;18.70;;;18.20;95.00;;;;;;5042603;28;20029;-55
2023/10/09 10:11:46;;;;;;;145.27;18.40;;;18.30;94.90;;;;;;5048402;28;20025;-55
2023/10/09 10:14:31;;;;;;;129.80;17.90;;;18.40;94.80;;;;;;5064866;28;20032;-55
2023/10/09 10:17:18;;;;;;;109.22;17.75;;;18.40;94.70;;;;;;5062096;28;20120;-55
2023/10/09 10:19:59;;;;;;;105.82;15.95;;;18.50;94.70;;;;;;5050837;28;20507;-55
2023/10/09 10:22:29;;;;;;;124.97;17.55;;;18.60;94.70;;;;;;5063117;28;20044;-55
2023/10/09 10:24:57;;;;;;;116.00;17.77;;;18.60;94.60;;;;;;5062631;28;20021;-55
2023/10/09 10:27:26;;;;;;;104.05;16.70;;;18.60;94.60;;;;;;5068031;28;20028;-55
2023/10/09 10:30:13;;;;;;;116.93;16.20;;;18.70;94.60;;;;;;5074118;28;20037;-55
2023/10/09 10:32:54;;;;;;;116.70;16.90;;;18.70;94.50;;;;;;5065994;28;20047;-56
2023/10/09 10:35:32;;;;;;;89.93;14.48;;;18.80;94.40;;;;;;5062704;28;20036;-55
2023/10/09 10:40:45;;;;;;;103.90;16.40;;;18.90;94.40;;;;;;5077713;28;20037;-55
2023/10/09 10:43:47;;;;;;;111.85;17.02;;;18.90;94.40;;;;;;5061769;28;20028;-55
2023/10/09 10:46:34;;;;;;;114.82;16.35;;;19.00;94.30;;;;;;5049974;28;20032;-55
2023/10/09 10:49:15;;;;;;;93.63;16.23;;;19.00;94.20;;;;;;5063370;28;20116;-55
2023/10/09 10:51:40;;;;;;;111.07;15.70;;;19.10;94.10;;;;;;5031827;28;20033;-55
2023/10/09 10:56:57;;;;;;;109.25;16.02;;;19.20;93.70;;;;;;5031473;28;20110;-55
2023/10/09 10:59:23;;;;;;;90.05;16.52;;;19.30;93.60;;;;;;5046904;28;20162;-55
2023/10/09 11:12:44;;;;;;;104.22;16.38;;;19.50;93.00;;;;;;5060556;28;20108;-55
2023/10/09 11:15:37;;;;;;;92.45;13.80;;;19.60;92.90;;;;;;5064233;28;20044;-55
2023/10/09 11:17:59;;;;;;;85.88;15.38;;;19.70;92.80;;;;;;5046073;28;20044;-55
2023/10/09 11:20:26;;;;;;;88.72;15.68;;;19.80;92.60;;;;;;5066102;28;20053;-55
2023/10/09 11:25:50;;;;;;;92.32;14.73;;;19.80;92.40;;;;;;5051403;28;20025;-55
2023/10/09 11:31:11;;;;;;;178.40;22.58;;;19.90;92.20;;;;;;5056473;28;20090;-55
2023/10/09 11:33:51;;;;;;;131.80;18.00;;;20.00;92.10;;;;;;5065163;28;20024;-55
2023/10/09 11:36:32;;;;;;;148.02;20.90;;;20.00;92.00;;;;;;5065052;28;20044;-55
2023/10/09 11:39:13;;;;;;;149.45;18.75;;;20.00;92.00;;;;;;5048755;28;20114;-55
2023/10/09 11:41:42;;;;;;;131.60;17.48;;;20.10;91.90;;;;;;5034587;28;20021;-55
2023/10/09 11:44:33;;;;;;;131.65;19.00;;;20.10;91.90;;;;;;5064636;28;20120;-55
2023/10/09 11:46:58;;;;;;;152.50;20.20;;;20.10;91.80;;;;;;5076702;28;20029;-55
2023/10/09 11:49:27;;;;;;;122.90;17.15;;;20.20;91.80;;;;;;5062986;28;20467;-55
2023/10/09 11:54:36;;;;;;;129.70;16.08;;;20.30;91.50;;;;;;5062706;28;20483;-55
2023/10/09 11:57:02;;;;;;;102.95;16.33;;;20.30;91.40;;;;;;5063130;28;20045;-55
2023/10/09 11:59:37;;;;;;;84.57;15.23;;;20.40;91.40;;;;;;5079936;28;20035;-55
2023/10/09 12:02:11;;;;;;;89.83;15.03;;;20.40;91.30;;;;;;5066941;28;20028;-55
2023/10/09 12:04:41;;;;;;;101.40;15.27;;;20.50;91.20;;;;;;5081555;28;20091;-55
2023/10/09 12:07:08;;;;;;;84.75;14.40;;;20.50;91.10;;;;;;5064989;28;20030;-55
2023/10/09 12:09:34;;;;;;;82.80;14.85;;;20.50;91.10;;;;;;5065854;28;20468;-55
2023/10/09 12:12:02;;;;;;;95.53;15.13;;;20.60;91.10;;;;;;5063874;28;20041;-55
2023/10/09 12:14:33;;;;;;;88.75;12.98;;;20.60;90.90;;;;;;5048314;28;20045;-55
2023/10/09 12:17:05;;;;;;;68.78;12.35;;;20.70;90.90;;;;;;5048804;28;20032;-55
2023/10/09 12:19:37;;;;;;;94.70;14.57;;;20.70;90.80;;;;;;5048497;28;20051;-56
2023/10/09 12:22:04;;;;;;;88.97;15.20;;;20.80;90.70;;;;;;5065109;28;20044;-55
2023/10/09 12:24:31;;;;;;;91.55;13.90;;;20.90;90.60;;;;;;5064928;28;20025;-55
2023/10/09 12:26:57;;;;;;;85.60;13.10;;;20.90;90.50;;;;;;5064728;28;20028;-55
2023/10/09 12:29:23;;;;;;;87.65;14.32;;;21.00;90.60;;;;;;5064182;28;20068;-55
2023/10/09 12:31:57;;;;;;;105.20;15.05;;;21.10;90.50;;;;;;5065921;28;20094;-55
2023/10/09 12:34:26;;;;;;;90.22;14.30;;;21.10;90.40;;;;;;5034605;28;20029;-55
2023/10/09 12:36:52;;;;;;;69.97;13.43;;;21.10;90.40;;;;;;5065201;28;20029;-55
2023/10/09 12:39:18;;;;;;;86.10;14.45;;;21.20;90.50;;;;;;5081125;28;20061;-55
2023/10/09 12:41:44;;;;;;;120.10;16.98;;;21.30;90.50;;;;;;5065586;28;20028;-55
2023/10/09 12:44:18;;;;;;;116.15;17.75;;;21.30;90.40;;;;;;5065520;28;20158;-55
2023/10/09 12:46:53;;;;;;;120.65;16.58;;;21.40;90.30;;;;;;5065714;28;20033;-55
2023/10/09 12:49:27;;;;;;;116.27;16.87;;;21.40;90.30;;;;;;5064401;28;20485;-55
2023/10/09 12:51:53;;;;;;;145.57;19.63;;;21.50;90.30;;;;;;5063495;28;20032;-55
2023/10/09 12:54:26;;;;;;;142.77;18.40;;;21.50;90.30;;;;;;5062395;28;20043;-56
2023/10/09 12:56:55;;;;;;;137.65;17.05;;;21.50;90.20;;;;;;5064080;28;20032;-55
2023/10/09 12:59:21;;;;;;;152.55;19.00;;;21.60;90.20;;;;;;5064313;28;20017;-55
2023/10/09 13:01:52;;;;;;;157.05;19.95;;;21.60;90.10;;;;;;5061149;28;20411;-55
2023/10/09 13:04:17;;;;;;;142.60;21.98;;;21.70;90.10;;;;;;5078586;28;20036;-55
2023/10/09 13:06:43;;;;;;;147.40;19.13;;;21.70;90.10;;;;;;5080449;28;20025;-55
2023/10/09 13:09:33;;;;;;;153.35;20.10;;;21.70;90.00;;;;;;5063590;28;20065;-55
2023/10/09 13:12:00;;;;;;;129.52;18.52;;;21.80;89.90;;;;;;5076970;28;20088;-55
2023/10/09 13:14:26;;;;;;;134.48;19.17;;;21.80;90.00;;;;;;5062086;28;20029;-55
2023/10/09 13:16:52;;;;;;;156.27;22.42;;;21.80;89.90;;;;;;5063208;28;20029;-55
2023/10/09 13:19:18;;;;;;;174.82;21.60;;;21.80;90.10;;;;;;5063356;28;20037;-55
2023/10/09 13:21:43;;;;;;;151.70;21.13;;;21.90;89.80;;;;;;5045368;28;20025;-55
2023/10/09 13:24:12;;;;;;;169.55;21.67;;;22.00;89.80;;;;;;5063921;28;20056;-55
2023/10/09 13:26:40;;;;;;;180.15;23.00;;;21.90;89.70;;;;;;5061725;28;20069;-55
2023/10/09 13:29:09;;;;;;;153.18;21.75;;;21.90;89.70;;;;;;5077511;28;20064;-55
2023/10/09 13:31:37;;;;;;;148.30;21.40;;;22.00;89.70;;;;;;5061710;28;20100;-55
2023/10/09 13:34:06;;;;;;;162.00;20.50;;;22.00;89.40;;;;;;5061745;28;20042;-55
2023/10/09 13:36:32;;;;;;;189.18;22.20;;;22.00;89.40;;;;;;5045052;28;20021;-55
2023/10/09 13:41:59;;;;;;;125.00;18.65;;;22.00;89.20;;;;;;5076987;28;20098;-55
2023/10/09 13:44:26;;;;;;;;;;;22.10;89.20;;;;;;5064044;28;20025;-55
2023/10/09 13:46:56;;;;;;;175.40;23.40;;;22.10;89.20;;;;;;5064017;28;19924;-55
2023/10/09 13:49:22;;;;;;;165.10;22.63;;;22.10;89.60;;;;;;5080018;28;20029;-55
2023/10/09 13:51:49;;;;;;;160.88;23.30;;;22.20;89.60;;;;;;5064608;28;20036;-55
2023/10/09 13:54:28;;;;;;;224.05;27.20;;;22.20;89.60;;;;;;5061913;28;20037;-55
2023/10/09 13:56:56;;;;;;;207.15;24.27;;;22.20;89.40;;;;;;5062623;28;20040;-55
2023/10/09 13:59:25;;;;;;;216.25;25.13;;;22.30;89.50;;;;;;5066138;28;20082;-56
2023/10/09 14:01:54;;;;;;;171.63;22.23;;;22.30;89.30;;;;;;5083642;28;20048;-55
2023/10/09 14:04:19;;;;;;;178.65;23.15;;;22.20;89.00;;;;;;5066721;28;20469;-56
2023/10/09 14:06:45;;;;;;;135.63;18.65;;;22.30;88.90;;;;;;5058405;28;20032;-56
2023/10/09 14:09:27;;;;;;;131.50;18.17;;;22.30;88.30;;;;;;5066614;28;20052;-55
2023/10/09 14:12:06;;;;;;;134.40;17.75;;;22.30;87.80;;;;;;5081144;28;20400;-55
2023/10/09 14:14:40;;;;;;;106.18;16.20;;;22.30;87.70;;;;;;5066580;28;20033;-55
2023/10/09 14:17:12;;;;;;;102.78;16.83;;;22.30;87.40;;;;;;5066148;28;20021;-56
2023/10/09 14:19:41;;;;;;;96.13;14.48;;;22.30;87.30;;;;;;5068364;28;20029;-56
2023/10/09 14:22:07;;;;;;;109.75;16.27;;;22.30;86.80;;;;;;5066354;28;20032;-56
2023/10/09 14:24:34;;;;;;;86.07;14.25;;;22.40;86.80;;;;;;5066671;28;20030;-55
2023/10/09 14:27:04;;;;;;;110.00;14.93;;;22.40;86.40;;;;;;5065100;28;20063;-56
2023/10/09 14:29:30;;;;;;;116.18;15.85;;;22.40;86.10;;;;;;5064679;28;20071;-56
2023/10/09 14:32:02;;;;;;;83.03;13.98;;;22.50;85.90;;;;;;5050089;28;20025;-55
2023/10/09 14:34:32;;;;;;;78.28;14.45;;;22.50;85.70;;;;;;5063481;28;20048;-55
2023/10/09 14:37:00;;;;;;;89.60;12.90;;;22.50;85.60;;;;;;5069644;28;20061;-55
2023/10/09 14:39:26;;;;;;;81.80;13.32;;;22.50;85.30;;;;;;5080836;28;20029;-55
2023/10/09 14:41:54;;;;;;;93.80;12.63;;;22.50;85.10;;;;;;5068273;28;20056;-55
2023/10/09 14:44:20;;;;;;;114.13;14.10;;;22.50;84.90;;;;;;5065830;28;20036;-56
2023/10/09 14:46:46;;;;;;;104.07;13.43;;;22.50;84.70;;;;;;5049675;28;20029;-56
2023/10/09 14:49:14;;;;;;;84.07;12.18;;;22.50;84.50;;;;;;5065790;28;20044;-56
2023/10/09 14:51:39;;;;;;;79.38;12.90;;;22.50;84.50;;;;;;5083384;28;20035;-55
2023/10/09 14:54:07;;;;;;;77.50;12.35;;;22.50;84.20;;;;;;5067306;28;20033;-55
2023/10/09 14:56:36;;;;;;;84.45;12.77;;;22.50;84.20;;;;;;5063829;28;20477;-56
2023/10/09 14:59:02;;;;;;;69.97;10.90;;;22.60;84.20;;;;;;5061204;28;20024;-56
2023/10/09 15:01:31;;;;;;;71.10;11.75;;;22.60;84.30;;;;;;5067217;28;20080;-56
2023/10/09 15:03:59;;;;;;;69.88;12.13;;;22.50;84.10;;;;;;5066812;28;20021;-56
2023/10/09 15:06:29;;;;;;;101.18;12.60;;;22.60;84.00;;;;;;5029918;28;20033;-56